Time;durP1;ratioP1;P1;durP2;ratioP2;P2;SDS_P1;SDS_P2;PMS_P1;PMS_P2;Temp;Humidity;BMP_temperature;BMP_pressure;BME280_temperature;BME280_humidity;BME280_pressure;Samples;Min_cycle;Max_cycle;Signal;HPM_P1;HPM_P2
2023/11/11 00:01:34;;;;;;;1.90;1.70;;;;;;;7.66;64.00;93713.19;6157915;23;20210;-84
2023/11/11 00:04:01;;;;;;;2.20;1.70;;;;;;;7.60;63.85;93719.88;6161262;23;20271;-85
2023/11/11 00:06:28;;;;;;;1.73;1.60;;;;;;;7.57;64.43;93736.44;6159283;23;20250;-84
2023/11/11 00:08:56;;;;;;;1.90;1.70;;;;;;;7.54;64.51;93729.16;6160288;23;20178;-85
2023/11/11 00:11:23;;;;;;;1.60;1.47;;;;;;;7.51;64.71;93739.03;6160665;23;20175;-84
2023/11/11 00:13:51;;;;;;;1.87;1.63;;;;;;;7.45;64.44;93738.06;6159000;23;20179;-85
2023/11/11 00:16:19;;;;;;;1.50;1.40;;;;;;;7.41;65.16;93744.59;6159505;23;20682;-84
2023/11/11 00:18:46;;;;;;;1.70;1.60;;;;;;;7.42;65.19;93741.03;6158940;23;20171;-84
2023/11/11 00:21:13;;;;;;;1.70;1.60;;;;;;;7.40;64.81;93743.00;6158489;23;20194;-84
2023/11/11 00:23:40;;;;;;;2.17;1.60;;;;;;;7.38;65.09;93739.88;6156646;23;20198;-85
2023/11/11 00:26:07;;;;;;;3.07;2.00;;;;;;;7.44;64.99;93730.59;6157009;23;20194;-85
2023/11/11 00:28:40;;;;;;;1.60;1.40;;;;;;;7.44;65.06;93730.59;6157288;23;20222;-85
2023/11/11 00:31:08;;;;;;;1.60;1.50;;;;;;;7.49;64.87;93723.09;6157337;23;20268;-84
2023/11/11 00:33:34;;;;;;;1.93;1.50;;;;;;;7.55;64.75;93714.59;6156800;23;20206;-85
2023/11/11 00:36:02;;;;;;;1.90;1.60;;;;;;;7.60;64.52;93695.06;6157498;23;20208;-84
2023/11/11 00:38:30;;;;;;;1.90;1.60;;;;;;;7.55;64.15;93687.22;6157660;23;20182;-84
2023/11/11 00:40:58;;;;;;;2.10;1.60;;;;;;;7.55;63.98;93676.97;6158728;23;20179;-85
2023/11/11 00:43:24;;;;;;;1.60;1.50;;;;;;;7.53;64.41;93693.53;6157946;23;20178;-85
2023/11/11 00:45:53;;;;;;;2.00;1.60;;;;;;;7.55;64.59;93694.88;6157267;23;20728;-84
2023/11/11 00:48:19;;;;;;;1.67;1.57;;;;;;;7.55;64.28;93697.44;6159143;23;20206;-83
2023/11/11 00:50:46;;;;;;;1.67;1.50;;;;;;;7.54;64.90;93711.25;6158827;23;20175;-84
2023/11/11 00:53:12;;;;;;;1.30;1.17;;;;;;;7.56;64.36;93701.59;6157334;23;20183;-83
2023/11/11 00:55:38;;;;;;;1.50;1.40;;;;;;;7.59;64.24;93703.75;6157986;23;20199;-84
2023/11/11 00:58:06;;;;;;;1.47;1.37;;;;;;;7.56;65.07;93736.66;6157757;23;20179;-84
2023/11/11 01:00:34;;;;;;;1.67;1.30;;;;;;;7.55;64.96;93737.63;6157437;23;20178;-84
2023/11/11 01:03:01;;;;;;;1.53;1.20;;;;;;;7.51;64.71;93729.56;6154921;23;20589;-84
2023/11/11 01:05:28;;;;;;;1.30;1.20;;;;;;;7.55;64.68;93732.50;6151767;23;20194;-84
2023/11/11 01:07:54;;;;;;;1.43;1.23;;;;;;;7.57;64.79;93739.00;6151947;23;20179;-83
2023/11/11 01:10:23;;;;;;;1.63;1.23;;;;;;;7.53;64.53;93725.03;6152367;23;20186;-83
2023/11/11 01:12:49;;;;;;;1.53;1.00;;;;;;;7.41;63.77;93654.97;6151677;23;20198;-84
2023/11/11 01:15:17;;;;;;;1.23;1.13;;;;;;;7.44;63.47;93656.34;6151073;23;20199;-84
2023/11/11 01:17:44;;;;;;;1.10;1.00;;;;;;;7.48;63.18;93640.38;6151633;23;20253;-83
2023/11/11 01:20:12;;;;;;;1.40;1.10;;;;;;;7.54;63.32;93634.44;6152136;23;20266;-84
2023/11/11 01:22:39;;;;;;;1.00;0.90;;;;;;;7.65;63.49;93650.94;6151039;23;20198;-84
2023/11/11 01:25:08;;;;;;;1.13;1.03;;;;;;;7.66;63.55;93644.81;6150733;23;20194;-83
2023/11/11 01:27:36;;;;;;;0.80;0.80;;;;;;;7.67;63.88;93674.56;6152076;23;20182;-84
2023/11/11 01:30:04;;;;;;;0.90;0.90;;;;;;;7.62;65.08;93713.56;6153480;23;20554;-83
2023/11/11 01:32:33;;;;;;;1.23;0.90;;;;;;;7.66;65.15;93728.53;6153645;23;20171;-84
2023/11/11 01:34:59;;;;;;;1.00;0.90;;;;;;;7.64;65.27;93731.31;6153086;23;20195;-83
2023/11/11 01:37:26;;;;;;;0.90;0.90;;;;;;;7.60;65.06;93735.25;6151565;23;20183;-84
2023/11/11 01:39:52;;;;;;;1.10;1.00;;;;;;;7.55;64.86;93732.50;6152396;23;20179;-84
2023/11/11 01:42:19;;;;;;;0.93;0.93;;;;;;;7.56;65.25;93734.88;6152577;23;20226;-83
2023/11/11 01:44:46;;;;;;;1.10;1.00;;;;;;;7.57;65.35;93745.91;6151430;23;20186;-84
2023/11/11 01:47:13;;;;;;;0.80;0.80;;;;;;;7.59;65.72;93754.16;6152818;23;20179;-84
2023/11/11 01:49:43;;;;;;;1.10;1.00;;;;;;;7.51;65.69;93769.75;6152865;23;20203;-84
2023/11/11 01:52:10;;;;;;;1.23;1.00;;;;;;;7.55;66.08;93789.63;6152114;23;20178;-84
2023/11/11 01:54:38;;;;;;;1.20;0.90;;;;;;;7.57;66.41;93804.78;6151992;23;20182;-83
2023/11/11 01:57:06;;;;;;;1.50;0.90;;;;;;;7.59;66.96;93828.44;6152097;23;20182;-83
2023/11/11 01:59:34;;;;;;;2.37;0.90;;;;;;;7.57;67.21;93854.25;6152471;23;20182;-84
2023/11/11 02:02:01;;;;;;;0.87;0.87;;;;;;;7.49;68.44;93874.94;6153189;23;20671;-84
2023/11/11 02:04:28;;;;;;;1.37;0.80;;;;;;;7.45;69.21;93929.31;6152062;23;20531;-84
2023/11/11 02:06:56;;;;;;;1.23;0.60;;;;;;;7.36;71.13;93990.13;6152550;23;20175;-84
2023/11/11 02:09:23;;;;;;;1.03;0.83;;;;;;;7.36;72.67;94038.00;6152654;23;20207;-84
2023/11/11 02:11:52;;;;;;;0.70;0.70;;;;;;;7.26;74.05;94074.22;6153361;23;20179;-84
2023/11/11 02:14:20;;;;;;;0.97;0.70;;;;;;;7.31;75.02;94097.47;6152522;23;20765;-84
2023/11/11 02:16:48;;;;;;;0.67;0.67;;;;;;;7.24;76.62;94125.59;6153015;23;20195;-82
2023/11/11 02:19:15;;;;;;;0.60;0.60;;;;;;;7.31;76.55;94110.28;6152113;23;20628;-84
2023/11/11 02:21:42;;;;;;;0.63;0.63;;;;;;;7.29;76.72;94119.91;6152154;23;20311;-84
2023/11/11 02:24:11;;;;;;;1.87;0.70;;;;;;;7.22;77.09;94117.31;6151194;23;20175;-84
2023/11/11 02:26:39;;;;;;;0.80;0.80;;;;;;;7.27;78.58;94143.13;6151560;23;20198;-84
2023/11/11 02:29:05;;;;;;;0.70;0.70;;;;;;;7.34;78.73;94150.03;6152554;23;20253;-84
2023/11/11 02:31:32;;;;;;;0.50;0.50;;;;;;;7.23;79.61;94159.06;6152072;23;20175;-84
2023/11/11 02:33:58;;;;;;;0.63;0.63;;;;;;;7.26;79.96;94174.84;6151680;23;20175;-84
2023/11/11 02:36:25;;;;;;;0.50;0.50;;;;;;;7.20;80.43;94185.03;6152309;23;20443;-84
2023/11/11 02:38:51;;;;;;;0.87;0.60;;;;;;;7.20;80.29;94185.81;6151761;23;20186;-84
2023/11/11 02:41:19;;;;;;;0.87;0.67;;;;;;;7.25;80.52;94193.72;6151888;23;20628;-84
2023/11/11 02:43:45;;;;;;;0.90;0.70;;;;;;;7.24;80.69;94188.78;6150355;23;20195;-84
2023/11/11 02:46:12;;;;;;;1.17;0.70;;;;;;;7.25;80.67;94193.72;6151578;23;20202;-83
2023/11/11 02:48:39;;;;;;;0.60;0.60;;;;;;;7.25;81.23;94209.09;6152112;23;20253;-83
2023/11/11 02:51:05;;;;;;;0.50;0.50;;;;;;;7.21;81.21;94204.53;6151856;23;20633;-84
2023/11/11 02:53:31;;;;;;;0.67;0.50;;;;;;;7.20;81.26;94205.50;6151438;23;20186;-84
2023/11/11 02:55:59;;;;;;;0.67;0.60;;;;;;;7.23;81.28;94210.25;6152741;23;20195;-84
2023/11/11 02:58:26;;;;;;;0.80;0.50;;;;;;;7.17;81.65;94214.34;6150936;23;20181;-83
2023/11/11 03:00:54;;;;;;;0.50;0.50;;;;;;;7.11;81.44;94214.34;6151669;23;20186;-83
2023/11/11 03:03:21;;;;;;;1.00;0.80;;;;;;;7.20;81.37;94221.66;6151389;23;20210;-83
2023/11/11 03:05:47;;;;;;;0.50;0.50;;;;;;;7.18;82.06;94240.72;6151687;23;20229;-83
2023/11/11 03:08:13;;;;;;;0.90;0.50;;;;;;;7.05;82.34;94233.00;6151363;23;20655;-83
2023/11/11 03:10:40;;;;;;;1.17;0.50;;;;;;;7.13;82.68;94245.63;6151727;23;20179;-83
2023/11/11 03:13:09;;;;;;;0.40;0.40;;;;;;;7.08;82.41;94238.53;6150843;23;20181;-84
2023/11/11 03:15:37;;;;;;;0.77;0.60;;;;;;;7.07;82.03;94239.50;6150584;23;20684;-83
2023/11/11 03:18:03;;;;;;;0.67;0.57;;;;;;;7.05;82.56;94241.47;6151522;23;20213;-84
2023/11/11 03:20:30;;;;;;;0.63;0.50;;;;;;;7.12;82.80;94244.06;6151119;23;20175;-84
2023/11/11 03:22:57;;;;;;;0.67;0.33;;;;;;;7.20;82.54;94239.56;6151875;23;20250;-83
2023/11/11 03:25:24;;;;;;;0.53;0.40;;;;;;;7.18;82.69;94253.53;6150813;23;20199;-83
2023/11/11 03:27:51;;;;;;;0.43;0.43;;;;;;;7.02;82.80;94249.50;6151200;23;20514;-83
2023/11/11 03:30:17;;;;;;;0.63;0.40;;;;;;;6.97;83.19;94261.25;6151323;23;20178;-84
2023/11/11 03:32:45;;;;;;;0.40;0.40;;;;;;;7.06;83.34;94258.38;6151733;23;20182;-84
2023/11/11 03:35:11;;;;;;;0.57;0.40;;;;;;;7.11;83.03;94255.28;6151197;23;20210;-84
2023/11/11 03:37:38;;;;;;;0.50;0.50;;;;;;;7.25;82.37;94255.16;6151411;23;20186;-83
2023/11/11 03:40:06;;;;;;;0.97;0.37;;;;;;;7.23;82.33;94246.09;6151919;23;20175;-84
2023/11/11 03:42:33;;;;;;;0.50;0.50;;;;;;;7.23;82.44;94231.53;6151310;23;20388;-83
2023/11/11 03:44:59;;;;;;;0.40;0.40;;;;;;;7.22;81.93;94222.25;6151494;23;20195;-84
2023/11/11 03:47:25;;;;;;;0.50;0.50;;;;;;;7.12;81.98;94221.03;6150833;23;20257;-83
2023/11/11 03:49:53;;;;;;;2.10;0.70;;;;;;;7.19;81.96;94232.06;6151086;23;20178;-84
2023/11/11 03:52:20;;;;;;;0.50;0.50;;;;;;;7.24;81.76;94224.63;6151418;23;20538;-83
2023/11/11 03:54:46;;;;;;;0.50;0.50;;;;;;;7.27;81.00;94214.03;6151480;23;20163;-84
2023/11/11 03:57:12;;;;;;;1.47;0.53;;;;;;;7.25;81.01;94203.97;6151331;23;20179;-84
2023/11/11 03:59:39;;;;;;;0.40;0.40;;;;;;;7.18;81.20;94200.56;6151853;23;20183;-83
2023/11/11 04:02:05;;;;;;;0.40;0.40;;;;;;;7.15;80.85;94210.41;6152135;23;20179;-84
2023/11/11 04:04:32;;;;;;;0.50;0.50;;;;;;;7.03;81.50;94222.94;6150370;23;20186;-84
2023/11/11 04:07:00;;;;;;;0.50;0.50;;;;;;;7.03;81.27;94206.78;6151849;23;20174;-84
2023/11/11 04:09:30;;;;;;;0.50;0.50;;;;;;;7.03;81.59;94225.50;6151891;23;20242;-84
2023/11/11 04:11:56;;;;;;;0.37;0.37;;;;;;;7.04;81.53;94224.53;6150847;23;20221;-83
2023/11/11 04:14:23;;;;;;;0.40;0.40;;;;;;;7.07;81.59;94223.34;6151183;23;20253;-84
2023/11/11 04:16:49;;;;;;;0.30;0.30;;;;;;;7.08;81.53;94217.25;6151165;23;20199;-84
2023/11/11 04:19:16;;;;;;;0.40;0.40;;;;;;;6.93;81.71;94225.03;6149935;23;20175;-84
2023/11/11 04:21:48;;;;;;;0.40;0.40;;;;;;;7.01;81.59;94230.00;6151259;23;20183;-83
2023/11/11 04:24:17;;;;;;;0.50;0.50;;;;;;;7.15;80.78;94225.75;6150419;23;20658;-83
2023/11/11 04:26:44;;;;;;;0.40;0.40;;;;;;;7.20;80.44;94218.31;6150617;23;20198;-84
2023/11/11 04:29:11;;;;;;;0.50;0.50;;;;;;;7.11;80.82;94222.00;6150552;23;20186;-83
2023/11/11 04:31:37;;;;;;;0.50;0.50;;;;;;;7.11;80.70;94217.69;6151245;23;20179;-83
2023/11/11 04:34:04;;;;;;;0.47;0.47;;;;;;;7.17;80.45;94223.78;6150412;23;20206;-84
2023/11/11 04:36:31;;;;;;;0.57;0.50;;;;;;;7.17;80.59;94234.03;6150713;23;20195;-84
2023/11/11 04:38:57;;;;;;;0.40;0.40;;;;;;;7.16;81.01;94247.81;6151752;23;20258;-83
2023/11/11 04:41:27;;;;;;;0.57;0.57;;;;;;;7.16;81.17;94240.13;6151300;23;20670;-84
2023/11/11 04:43:54;;;;;;;1.50;0.60;;;;;;;7.14;81.16;94255.66;6150492;23;20202;-84
2023/11/11 04:46:20;;;;;;;0.40;0.40;;;;;;;7.16;81.58;94263.97;6151085;23;20277;-84
2023/11/11 04:48:46;;;;;;;0.50;0.50;;;;;;;7.13;81.58;94264.31;6150961;23;20179;-84
2023/11/11 04:51:13;;;;;;;0.50;0.50;;;;;;;7.15;82.23;94275.16;6151127;23;20697;-84
2023/11/11 04:53:40;;;;;;;0.40;0.40;;;;;;;7.28;82.15;94280.38;6150416;23;20187;-84
2023/11/11 04:56:07;;;;;;;0.67;0.50;;;;;;;7.26;82.08;94284.91;6150561;23;20250;-84
2023/11/11 04:58:38;;;;;;;0.40;0.40;;;;;;;7.29;82.57;94296.53;6151276;23;20186;-83
2023/11/11 05:01:05;;;;;;;0.40;0.40;;;;;;;7.32;82.30;94296.13;6152233;23;20165;-84
2023/11/11 05:03:31;;;;;;;0.60;0.50;;;;;;;7.32;82.69;94293.56;6150164;23;20198;-84
2023/11/11 05:05:58;;;;;;;0.40;0.40;;;;;;;7.26;83.00;94310.50;6152166;23;20195;-84
2023/11/11 05:08:24;;;;;;;0.60;0.60;;;;;;;7.24;83.26;94338.06;6152757;23;20673;-85
2023/11/11 05:10:52;;;;;;;0.50;0.50;;;;;;;7.22;83.80;94344.31;6152619;23;20178;-83
2023/11/11 05:13:20;;;;;;;0.50;0.50;;;;;;;7.31;83.36;94339.88;6153149;23;20278;-84
2023/11/11 05:15:59;;;;;;;0.57;0.57;;;;;;;7.33;83.59;94348.91;6152376;23;20694;-83
2023/11/11 05:18:25;;;;;;;0.50;0.50;;;;;;;7.40;83.65;94354.09;6152544;23;20537;-84
2023/11/11 05:20:51;;;;;;;0.60;0.60;;;;;;;7.45;82.31;94329.53;6156275;23;20178;-84
2023/11/11 05:23:18;;;;;;;0.40;0.40;;;;;;;7.40;81.36;94298.56;6162679;23;20202;-84
2023/11/11 05:25:45;;;;;;;1.80;0.60;;;;;;;7.51;80.82;94292.91;6163205;23;20253;-84
2023/11/11 05:28:11;;;;;;;0.73;0.50;;;;;;;7.56;80.90;94282.09;6163613;23;20182;-85
2023/11/11 05:30:37;;;;;;;0.80;0.43;;;;;;;7.59;81.18;94287.63;6161667;23;20179;-85
2023/11/11 05:33:06;;;;;;;0.60;0.60;;;;;;;7.57;81.59;94306.72;6162816;23;20175;-83
2023/11/11 05:35:33;;;;;;;0.50;0.50;;;;;;;7.52;82.43;94325.22;6161746;23;20202;-85
2023/11/11 05:37:59;;;;;;;1.10;0.70;;;;;;;7.45;83.29;94354.34;6161751;23;20175;-84
2023/11/11 05:40:26;;;;;;;0.63;0.63;;;;;;;7.50;83.85;94364.81;6161173;23;20202;-84
2023/11/11 05:42:52;;;;;;;0.63;0.63;;;;;;;7.49;83.78;94373.47;6162517;23;20819;-83
2023/11/11 05:45:19;;;;;;;0.80;0.80;;;;;;;7.40;83.98;94369.47;6160204;23;20529;-84
2023/11/11 05:47:46;;;;;;;0.70;0.70;;;;;;;7.44;84.29;94403.97;6162320;23;20195;-84
2023/11/11 05:50:14;;;;;;;0.70;0.70;;;;;;;7.49;84.64;94412.69;6161504;23;20833;-84
2023/11/11 05:52:42;;;;;;;1.57;0.87;;;;;;;7.53;84.80;94425.88;6159862;23;20218;-84
2023/11/11 05:55:09;;;;;;;1.20;0.80;;;;;;;7.50;84.90;94442.44;6160020;23;20222;-82
2023/11/11 05:57:37;;;;;;;0.70;0.70;;;;;;;7.48;85.17;94438.47;6159427;23;20189;-84
2023/11/11 06:00:05;;;;;;;0.80;0.80;;;;;;;7.49;84.75;94442.63;6159497;23;20179;-84
2023/11/11 06:02:32;;;;;;;0.90;0.70;;;;;;;7.52;84.95;94449.91;6158689;23;20206;-85
2023/11/11 06:04:58;;;;;;;1.70;0.77;;;;;;;7.49;84.77;94447.75;6157851;23;20195;-85
2023/11/11 06:07:26;;;;;;;0.80;0.80;;;;;;;7.46;85.96;94482.19;6158776;23;20181;-84
2023/11/11 06:09:53;;;;;;;0.97;0.93;;;;;;;7.48;86.42;94513.53;6158735;23;20179;-84
2023/11/11 06:12:19;;;;;;;1.10;1.00;;;;;;;7.44;87.67;94521.75;6158754;23;20179;-83
2023/11/11 06:14:46;;;;;;;1.10;0.90;;;;;;;7.47;88.23;94545.22;6159541;23;20244;-83
2023/11/11 06:17:12;;;;;;;1.30;1.10;;;;;;;7.48;88.63;94566.50;6160316;23;20184;-83
2023/11/11 06:19:38;;;;;;;1.03;1.00;;;;;;;7.39;89.32;94557.34;6160053;23;20850;-84
2023/11/11 06:22:05;;;;;;;1.47;1.10;;;;;;;7.33;90.14;94571.66;6160583;23;20186;-84
2023/11/11 06:24:33;;;;;;;1.17;1.00;;;;;;;7.21;90.33;94594.38;6159633;23;20203;-83
2023/11/11 06:26:59;;;;;;;0.90;0.90;;;;;;;7.19;90.85;94580.97;6160816;23;20254;-84
2023/11/11 06:29:26;;;;;;;1.27;0.90;;;;;;;7.21;90.87;94584.16;6161832;23;20189;-83
2023/11/11 06:31:52;;;;;;;1.67;1.00;;;;;;;7.24;89.89;94568.44;6161813;23;20179;-83
2023/11/11 06:34:19;;;;;;;1.63;1.00;;;;;;;7.22;89.66;94570.38;6163052;23;20241;-84
2023/11/11 06:36:46;;;;;;;1.37;1.10;;;;;;;7.28;88.55;94561.19;6162678;23;20253;-83
2023/11/11 06:39:13;;;;;;;1.20;1.03;;;;;;;7.38;88.93;94582.16;6163004;23;20171;-84
2023/11/11 06:41:41;;;;;;;1.77;1.27;;;;;;;7.43;87.85;94558.56;6162163;23;20182;-83
2023/11/11 06:44:07;;;;;;;1.63;1.13;;;;;;;7.70;96.06;94662.88;6156810;23;20750;-83
2023/11/11 06:46:34;;;;;;;3.10;1.40;;;;;;;8.43;100.00;94758.47;6152668;23;20728;-84
2023/11/11 06:49:00;;;;;;;2.13;1.40;;;;;;;8.76;92.75;94645.84;6153612;23;20185;-85
2023/11/11 06:51:27;;;;;;;1.70;1.17;;;;;;;9.18;90.20;94606.38;6153446;23;20179;-82
2023/11/11 06:53:54;;;;;;;1.03;0.80;;;;;;;9.09;77.30;94336.16;6153293;23;20274;-85
2023/11/11 06:56:20;;;;;;;1.47;0.80;;;;;;;8.73;75.26;94225.41;6153555;23;20195;-85
2023/11/11 06:58:48;;;;;;;1.70;0.90;;;;;;;8.29;74.39;94180.56;6154635;23;20183;-86
2023/11/11 07:01:22;;;;;;;0.80;0.80;;;;;;;8.13;75.08;94222.75;6152454;23;20183;-86
2023/11/11 07:03:49;;;;;;;0.90;0.90;;;;;;;7.97;74.85;94223.13;6153068;23;20187;-86
2023/11/11 07:06:22;;;;;;;0.97;0.90;;;;;;;7.93;75.63;94240.66;6153183;23;20269;-85
2023/11/11 07:08:49;;;;;;;2.60;1.70;;;;;;;7.77;75.33;94235.88;6154425;23;20494;-85
2023/11/11 07:11:16;;;;;;;1.60;1.23;;;;;;;7.84;75.30;94248.72;6154887;23;20226;-85
2023/11/11 07:13:44;;;;;;;2.57;1.80;;;;;;;7.73;75.14;94237.25;6154682;23;20190;-86
2023/11/11 07:16:12;;;;;;;2.73;1.90;;;;;;;7.66;75.12;94264.63;6154240;23;20696;-86
2023/11/11 07:18:39;;;;;;;1.03;0.93;;;;;;;7.62;76.15;94271.88;6154908;23;20704;-85
2023/11/11 07:21:05;;;;;;;0.90;0.90;;;;;;;7.68;75.98;94301.09;6153442;23;20178;-85
2023/11/11 07:23:32;;;;;;;2.50;1.30;;;;;;;7.78;75.65;94300.72;6152938;23;20198;-85
2023/11/11 07:25:58;;;;;;;1.73;1.10;;;;;;;7.77;75.52;94304.25;6153692;23;20206;-86
2023/11/11 07:28:26;;;;;;;1.50;1.10;;;;;;;7.81;75.71;94308.03;6154409;23;20186;-85
2023/11/11 07:30:52;;;;;;;1.93;1.10;;;;;;;7.75;75.79;94307.00;6152434;23;20159;-85
2023/11/11 07:33:20;;;;;;;1.27;1.17;;;;;;;7.76;75.74;94326.53;6151607;23;20178;-85
2023/11/11 07:35:46;;;;;;;1.47;1.17;;;;;;;7.73;75.48;94316.66;6150823;23;20278;-85
2023/11/11 07:38:14;;;;;;;1.40;1.30;;;;;;;7.73;75.66;94329.47;6151299;23;20644;-85
2023/11/11 07:40:41;;;;;;;2.93;1.40;;;;;;;8.01;82.09;94511.38;6152132;23;20179;-84
2023/11/11 07:43:07;;;;;;;1.73;1.10;;;;;;;8.07;77.75;94382.47;6160058;23;20175;-83
2023/11/11 07:45:34;;;;;;;2.33;1.50;;;;;;;8.16;75.88;94340.28;6152225;23;20780;-83
2023/11/11 07:48:00;;;;;;;5.13;1.40;;;;;;;8.07;73.53;94269.69;6151349;23;20185;-83
2023/11/11 07:50:30;;;;;;;1.30;1.20;;;;;;;8.03;73.54;94258.25;6151954;23;20175;-83
2023/11/11 07:52:56;;;;;;;1.53;1.20;;;;;;;8.15;72.85;94250.75;6151944;23;20183;-84
2023/11/11 07:55:22;;;;;;;1.67;1.13;;;;;;;8.15;72.20;94238.75;6152062;23;20702;-83
2023/11/11 07:57:49;;;;;;;4.77;3.53;;;;;;;8.19;71.85;94231.47;6153069;23;20178;-83
2023/11/11 08:00:18;;;;;;;3.00;2.10;;;;;;;8.15;71.12;94210.53;6153238;23;20175;-83
2023/11/11 08:02:45;;;;;;;1.17;1.00;;;;;;;8.42;70.53;94200.34;6152351;23;20198;-84
2023/11/11 08:05:11;;;;;;;1.10;1.00;;;;;;;8.61;69.29;94161.09;6152741;23;20203;-83
2023/11/11 08:07:39;;;;;;;1.27;1.17;;;;;;;9.00;68.23;94137.13;6155177;23;20302;-83
2023/11/11 08:10:07;;;;;;;1.53;1.20;;;;;;;9.08;66.87;94066.78;6157586;23;20198;-83
2023/11/11 08:12:33;;;;;;;2.03;1.00;;;;;;;9.12;65.64;94022.53;6152228;23;20179;-84
2023/11/11 08:15:01;;;;;;;1.37;1.20;;;;;;;9.25;65.76;94032.72;6150252;23;20750;-85
2023/11/11 08:17:29;;;;;;;1.30;1.20;;;;;;;8.99;65.29;94008.00;6150919;23;20179;-85
2023/11/11 08:19:55;;;;;;;3.77;1.03;;;;;;;9.10;65.76;94024.50;6150903;23;20181;-84
2023/11/11 08:22:22;;;;;;;1.23;1.13;;;;;;;9.03;65.80;94028.91;6149884;23;20666;-84
2023/11/11 08:24:50;;;;;;;1.40;1.13;;;;;;;9.11;65.06;94017.59;6150689;23;20195;-84
2023/11/11 08:27:18;;;;;;;0.80;0.80;;;;;;;9.30;64.74;94009.78;6149362;23;20203;-84
2023/11/11 08:29:47;;;;;;;1.83;1.30;;;;;;;9.21;64.69;93992.28;6150254;23;20182;-85
2023/11/11 08:32:13;;;;;;;1.93;1.47;;;;;;;9.38;64.16;93990.78;6151094;23;20206;-84
2023/11/11 08:34:40;;;;;;;1.40;1.20;;;;;;;9.20;63.70;93963.25;6150822;23;20175;-85
2023/11/11 08:37:06;;;;;;;2.33;1.10;;;;;;;9.09;63.47;93951.06;6150325;23;20193;-85
2023/11/11 08:39:33;;;;;;;1.30;1.20;;;;;;;9.08;63.38;93961.53;6150473;23;20186;-83
2023/11/11 08:42:00;;;;;;;1.83;1.50;;;;;;;8.94;62.97;93942.88;6151032;23;20182;-85
2023/11/11 08:44:28;;;;;;;3.50;1.50;;;;;;;8.99;63.40;93961.78;6150653;23;20226;-85
2023/11/11 08:46:54;;;;;;;1.70;1.60;;;;;;;8.97;63.73;93989.44;6149945;23;20206;-84
2023/11/11 08:49:20;;;;;;;2.33;1.70;;;;;;;9.00;63.69;93988.25;6150143;23;20179;-84
2023/11/11 08:51:48;;;;;;;1.63;1.50;;;;;;;9.07;63.20;93976.16;6150614;23;20175;-85
2023/11/11 08:54:14;;;;;;;1.40;1.17;;;;;;;9.08;62.91;93962.31;6149901;23;20244;-84
2023/11/11 08:56:42;;;;;;;2.00;1.37;;;;;;;9.08;62.10;93926.38;6149220;23;20558;-85
2023/11/11 08:59:11;;;;;;;1.60;1.50;;;;;;;9.16;62.56;93946.69;6150094;23;20273;-84
2023/11/11 09:01:38;;;;;;;1.20;1.10;;;;;;;9.17;62.91;93963.66;6150183;23;20183;-84
2023/11/11 09:04:05;;;;;;;1.73;1.50;;;;;;;9.26;62.56;93974.44;6149690;23;20202;-84
2023/11/11 09:06:32;;;;;;;1.40;1.10;;;;;;;9.39;61.72;93929.94;6150137;23;20202;-85
2023/11/11 09:08:58;;;;;;;2.27;1.37;;;;;;;9.44;60.77;93892.31;6151256;23;20178;-85
2023/11/11 09:11:25;;;;;;;1.10;1.00;;;;;;;9.50;60.41;93875.28;6150125;23;20242;-84
2023/11/11 09:13:52;;;;;;;1.77;1.30;;;;;;;9.77;60.42;93889.47;6150552;23;20175;-85
2023/11/11 09:16:20;;;;;;;1.77;1.37;;;;;;;9.95;60.40;93892.06;6149918;23;20199;-82
2023/11/11 09:18:47;;;;;;;2.00;1.10;;;;;;;10.09;59.61;93871.34;6151827;23;20185;-84
2023/11/11 09:21:13;;;;;;;1.50;1.40;;;;;;;10.13;58.72;93819.25;6154477;23;20199;-84
2023/11/11 09:23:41;;;;;;;3.40;1.50;;;;;;;10.07;58.50;93794.41;6151671;23;20178;-85
2023/11/11 09:26:08;;;;;;;1.10;1.00;;;;;;;10.04;58.53;93793.06;6150986;23;20209;-86
2023/11/11 09:28:34;;;;;;;1.23;1.07;;;;;;;10.00;58.09;93753.38;6152579;23;20198;-85
2023/11/11 09:31:01;;;;;;;2.03;1.50;;;;;;;9.98;58.01;93759.75;6151945;23;20198;-84
2023/11/11 09:33:30;;;;;;;1.60;1.30;;;;;;;10.17;58.99;93822.97;6149251;23;20630;-85
2023/11/11 09:35:57;;;;;;;1.30;1.20;;;;;;;10.11;57.01;93735.63;6150066;23;20191;-83
2023/11/11 09:38:23;;;;;;;6.57;4.70;;;;;;;10.15;57.27;93744.47;6150416;23;20175;-84
2023/11/11 09:40:50;;;;;;;2.00;1.60;;;;;;;10.15;57.44;93747.06;6151331;23;20257;-83
2023/11/11 09:43:16;;;;;;;2.10;1.40;;;;;;;10.27;57.34;93760.75;6151159;23;20179;-84
2023/11/11 09:45:43;;;;;;;1.97;1.20;;;;;;;10.24;57.44;93756.81;6151171;23;20211;-84
2023/11/11 09:48:10;;;;;;;1.30;1.00;;;;;;;10.32;57.19;93732.59;6149996;23;20186;-84
2023/11/11 09:50:38;;;;;;;1.40;1.30;;;;;;;10.40;57.06;93760.56;6153695;23;20493;-84
2023/11/11 09:53:05;;;;;;;2.70;1.40;;;;;;;10.54;57.07;93759.38;6153495;23;20482;-85
2023/11/11 09:55:34;;;;;;;1.33;1.23;;;;;;;10.36;56.96;93746.59;6164704;23;20191;-84
2023/11/11 09:58:01;;;;;;;2.37;1.40;;;;;;;10.47;56.95;93743.25;6167495;23;20202;-84
2023/11/11 10:00:29;;;;;;;2.30;1.60;;;;;;;10.53;57.14;93783.53;6166721;23;20185;-84
2023/11/11 10:02:56;;;;;;;1.30;1.20;;;;;;;10.48;56.93;93770.53;6166254;23;20175;-84
2023/11/11 10:05:23;;;;;;;2.20;1.20;;;;;;;10.46;57.10;93784.63;6165838;23;20213;-85
2023/11/11 10:07:51;;;;;;;1.77;1.57;;;;;;;10.29;57.07;93776.75;6165649;23;20178;-85
2023/11/11 10:10:18;;;;;;;1.63;1.20;;;;;;;10.31;57.38;93793.53;6165150;23;20225;-84
2023/11/11 10:12:45;;;;;;;2.27;1.80;;;;;;;10.36;57.37;93793.69;6164547;23;20183;-85
2023/11/11 10:15:11;;;;;;;2.97;2.23;;;;;;;10.25;57.66;93794.41;6165407;23;20221;-85
2023/11/11 10:17:39;;;;;;;1.70;1.40;;;;;;;10.11;57.94;93810.19;6164602;23;20250;-85
2023/11/11 10:20:13;;;;;;;3.17;1.30;;;;;;;10.01;58.06;93816.63;6165805;23;20604;-85
2023/11/11 10:22:43;;;;;;;1.73;1.60;;;;;;;9.81;57.89;93800.66;6164134;23;20358;-86
2023/11/11 10:25:12;;;;;;;3.40;2.00;;;;;;;9.71;58.72;93838.91;6163930;23;20195;-84
2023/11/11 10:27:39;;;;;;;9.53;6.63;;;;;;;9.73;59.17;93856.69;6164689;23;20258;-85
2023/11/11 10:30:16;;;;;;;4.03;2.47;;;;;;;9.59;58.79;93844.00;6165820;23;20183;-84
2023/11/11 10:32:48;;;;;;;2.97;1.37;;;;;;;9.50;58.65;93819.56;6164835;23;20162;-85
2023/11/11 10:35:15;;;;;;;2.97;1.80;;;;;;;9.35;59.19;93843.03;6163668;23;20214;-85
2023/11/11 10:37:41;;;;;;;3.27;1.50;;;;;;;9.40;59.27;93852.66;6164661;23;20202;-84
2023/11/11 10:40:10;;;;;;;5.27;2.10;;;;;;;9.32;59.12;93856.28;6163507;23;20239;-86
2023/11/11 10:42:38;;;;;;;1.63;1.20;;;;;;;9.34;58.82;93851.72;6162703;23;20175;-85
2023/11/11 10:45:05;;;;;;;1.47;1.00;;;;;;;9.34;58.99;93859.44;6160343;23;20202;-84
2023/11/11 10:47:34;;;;;;;1.40;1.10;;;;;;;9.40;58.95;93857.03;6161997;23;20178;-84
2023/11/11 10:50:01;;;;;;;2.33;1.37;;;;;;;9.42;59.11;93852.47;6162386;23;20179;-85
2023/11/11 10:52:30;;;;;;;2.50;1.30;;;;;;;9.45;59.35;93875.13;6159844;23;20187;-84
2023/11/11 10:54:59;;;;;;;1.37;1.10;;;;;;;9.53;59.29;93867.94;6160658;23;20205;-85
2023/11/11 10:57:28;;;;;;;2.00;1.30;;;;;;;9.49;59.67;93894.28;6160679;23;20183;-84
2023/11/11 10:59:56;;;;;;;1.57;1.30;;;;;;;9.48;59.81;93910.66;6160790;23;20197;-85
2023/11/11 11:02:24;;;;;;;1.20;1.10;;;;;;;9.45;59.76;93916.22;6159941;23;20190;-84
2023/11/11 11:04:55;;;;;;;1.30;1.20;;;;;;;9.38;59.86;93912.94;6160115;23;20256;-83
2023/11/11 11:07:26;;;;;;;1.20;1.10;;;;;;;9.45;59.90;93906.75;6160169;23;20165;-84
2023/11/11 11:10:01;;;;;;;1.70;1.20;;;;;;;9.40;59.83;93916.88;6159511;23;20163;-83
2023/11/11 11:12:35;;;;;;;1.77;0.97;;;;;;;9.52;59.83;93920.31;6160016;23;20163;-84
2023/11/11 11:15:06;;;;;;;1.57;1.40;;;;;;;9.87;59.75;93925.72;6161531;23;20156;-84
2023/11/11 11:17:35;;;;;;;1.43;1.30;;;;;;;10.35;59.39;93925.06;6160394;23;20194;-83
2023/11/11 11:20:08;;;;;;;1.00;1.00;;;;;;;10.73;57.83;93850.16;6159387;23;20690;-84
2023/11/11 11:22:37;;;;;;;2.27;2.07;;;;;;;10.69;57.61;93833.59;6161507;23;20276;-85
2023/11/11 11:25:33;;;;;;;8.43;7.37;;;;;;;10.64;57.63;93821.38;6159349;23;20670;-85
2023/11/11 11:28:24;;;;;;;1.83;1.40;;;;;;;10.43;57.67;93803.06;6160735;23;20175;-84
2023/11/11 11:30:55;;;;;;;1.30;1.00;;;;;;;10.28;57.40;93788.81;6163797;23;20188;-85
2023/11/11 11:33:24;;;;;;;3.70;1.10;;;;;;;10.12;56.97;93752.63;6162471;23;20191;-84
2023/11/11 11:35:53;;;;;;;1.00;1.00;;;;;;;9.98;57.10;93770.81;6165834;23;20194;-85
2023/11/11 11:38:25;;;;;;;2.20;1.27;;;;;;;10.14;57.05;93786.63;6163349;23;20178;-85
2023/11/11 11:40:52;;;;;;;2.17;1.13;;;;;;;10.35;57.15;93794.69;6162157;23;20164;-85
2023/11/11 11:43:27;;;;;;;1.43;1.20;;;;;;;10.54;56.64;93781.75;6161545;23;20186;-85